Nearby METAR Reports
KAVP - Avoca/Wilkes B., Pennsylvania, USA
Distance from station: NE 13mi, 20km
Updated: Fri, 24-Nov-2017 3:54am EST
Overcast
Overcast
 Wind from calm
Wind: Calm
Temperature: 32°F , 0°C
Dew Point: 23°F , -5°C
Humidity: 69%
Barometer: 30.00 inHg , 1015.9 hPa
Clouds: Overcast
Visibility: 10 miles , 16 km
Cloud details: Overcast 5500 ft
2017/11/24 08:54 KAVP 240854Z 00000KT 10SM OVC055 00/M05 A3000 RMK AO2 SLP165 T00001050 58000
KMPO - Mt. Pocono, Pennsylvania, USA
Distance from station: ESE 28mi, 45km
Updated: Fri, 24-Nov-2017 3:53am EST
Overcast
Overcast
 Wind from WNW
Wind: WNW 9 mph , 15 km/h
Temperature: 28°F , -2°C
Wind Chill: 19°F , -7°C
Dew Point: 19°F , -7°C
Humidity: 69%
Barometer: 29.95 inHg , 1014.2 hPa
Clouds: Overcast
Visibility: 10 miles , 16 km
Cloud details: Overcast 4800 ft
2017/11/24 08:53 KMPO 240853Z AUTO 29008KT 10SM OVC048 M02/M07 A2995 RMK AO2 SLP162 T10171067 50003
 
KABE - Allentown, Pennsylvania, USA
Distance from station: SSE 46mi, 74km
Updated: Fri, 24-Nov-2017 3:51am EST
Clear
Clear
 Wind from calm
Wind: Calm
Temperature: 25°F , -4°C
Dew Point: 19°F , -7°C
Humidity: 80%
Barometer: 30.04 inHg , 1017.3 hPa
Clouds: Clear
Visibility: 10 miles , 16 km
2017/11/24 08:51 KABE 240851Z 00000KT 10SM CLR M04/M07 A3004 RMK AO2 SLP178 T10391067 51003 $
KXLL - Allentown Queen, Pennsylvania, USA
Distance from station: SSE 50mi, 81km
Updated: Fri, 24-Nov-2017 3:35am EST
Clear
Clear
 Wind from calm
Wind: Calm
Temperature: 28°F , -2°C
Dew Point: 23°F , -5°C
Humidity: 80%
Barometer: 30.06 inHg , 1017.9 hPa
Clouds: Clear
Visibility: 10 miles , 16 km
2017/11/24 08:35 KXLL 240835Z AUTO 00000KT 10SM CLR M02/M05 A3006 RMK AO2
 
KIPT - Williamsport, Pennsylvania, USA
Distance from station: W 52mi, 84km
Updated: Fri, 24-Nov-2017 3:54am EST
Clear
Clear
 Wind from E
Wind: E 3 mph , 6 km/h
Temperature: 30°F , -1°C
Dew Point: 25°F , -4°C
Humidity: 80%
Barometer: 30.02 inHg , 1016.6 hPa
Clouds: Clear
Visibility: 10 miles , 16 km
2017/11/24 08:54 KIPT 240854Z AUTO 10003KT 10SM CLR M01/M04 A3002 RMK AO2 SLP171 T10061044 50002
KSEG - Selinsgrove, Pennsylvania, USA
Distance from station: WSW 57mi, 92km
Updated: Fri, 24-Nov-2017 3:53am EST
Clear
Clear
 Wind from calm
Wind: Calm
Temperature: 25°F , -4°C
Dew Point: 25°F , -4°C
Humidity: 100%
Barometer: 30.05 inHg , 1017.6 hPa
Clouds: Clear
Visibility: 9 miles , 14 km
2017/11/24 08:53 KSEG 240853Z AUTO 00000KT 9SM CLR M04/M04 A3005 RMK AO2 SLP180 T10391044 50001
 
KRDG - Reading, Pennsylvania, USA
Distance from station: S 59mi, 95km
Updated: Fri, 24-Nov-2017 3:54am EST
Clear
Clear
 Wind from calm
Wind: Calm
Temperature: 27°F , -3°C
Dew Point: 25°F , -4°C
Humidity: 93%
Barometer: 30.05 inHg , 1017.6 hPa
Clouds: Clear
Visibility: 10 miles , 16 km
2017/11/24 08:54 KRDG 240854Z 00000KT 10SM CLR M03/M04 A3005 RMK AO2 SLP182 T10331044 51001
KUKT - Quakertown Arp, Pennsylvania, USA
Distance from station: SSE 61mi, 98km
Updated: Fri, 24-Nov-2017 3:35am EST
Clear
Clear
 Wind from calm
Wind: Calm
Temperature: 23°F , -5°C
Dew Point: 21°F , -6°C
Humidity: 93%
Barometer: 30.04 inHg , 1017.3 hPa
Clouds: Clear
Visibility: 10 miles , 16 km
2017/11/24 08:35 KUKT 240835Z AUTO 00000KT 10SM CLR M05/M06 A3004 RMK AO1
 
K12N - Andover, New Jersey, USA
Distance from station: ESE 63mi, 101km
Updated: Fri, 24-Nov-2017 3:54am EST

 Wind from calm
Wind: Calm
Temperature: 23°F , -5°C
Dew Point: 21°F , -6°C
Humidity: 93%
Barometer: 30.03 inHg , 1016.9 hPa
2017/11/24 08:54 K12N 240854Z AUTO 00000KT M05/M06 A3003 RMK AO1 SLP179 T10501061 51004
KMUI - Muir Aaf/Indiant, Pennsylvania, USA
Distance from station: SSW 65mi, 105km
Updated: Fri, 24-Nov-2017 2:56am EST
Clear
Clear
 Wind from calm
Wind: Calm
Temperature: 23°F , -5°C
Dew Point: 23°F , -5°C
Humidity: 100%
Barometer: 30.04 inHg , 1017.3 hPa
Clouds: Clear
Visibility: 10 miles , 16 km
2017/11/24 07:56 KMUI 240756Z AUTO 00000KT 10SM CLR M05/M05 A3004 RMK AO2 SLP181 T10491052 TSNO $
 
KFWN - Sussex, New Jersey, USA
Distance from station: E 66mi, 107km
Updated: Fri, 24-Nov-2017 3:53am EST
Partly cloudy
Partly cloudy
 Wind from WSW
Wind: WSW 3 mph , 6 km/h
Temperature: 23°F , -5°C
Dew Point: 21°F , -6°C
Humidity: 93%
Barometer: 30.02 inHg , 1016.6 hPa
Clouds: Partly cloudy
Visibility: 10 miles , 16 km
Cloud details: Partly cloudy 6500 ft
2017/11/24 08:53 KFWN 240853Z AUTO 25003KT 10SM SCT065 M05/M06 A3002 RMK AO2 SLP170 T10501061 50002
KMSV - Monticello, New York, USA
Distance from station: ENE 67mi, 108km
Updated: Fri, 24-Nov-2017 2:56am EST
Clear
Clear
 Wind from calm
Wind: Calm
Temperature: 25°F , -4°C
Dew Point: 19°F , -7°C
Humidity: 80%
Barometer: 29.99 inHg , 1015.6 hPa
Clouds: Clear
Visibility: 10 miles , 16 km
2017/11/24 07:56 KMSV 240756Z AUTO 00000KT 10SM CLR M04/M07 A2999 RMK AO2 SLP171 T10391067 FZRANO
 
KBGM - Binghamton, New York, USA
Distance from station: N 69mi, 111km
Updated: Fri, 24-Nov-2017 3:53am EST
Mostly cloudy
Mostly cloudy
 Wind from SSW
Wind: SSW 6 mph , 9 km/h
Temperature: 30°F , -1°C
Wind Chill: 24°F , -4°C
Dew Point: 19°F , -7°C
Humidity: 64%
Barometer: 29.93 inHg , 1013.5 hPa
Clouds: Mostly cloudy
Visibility: 10 miles , 16 km
Cloud details: Mostly cloudy 5000 ft
2017/11/24 08:53 KBGM 240853Z AUTO 21005KT 10SM BKN050 M01/M07 A2993 RMK AO2 SLP153 T10111072 58004
KPTW - Pottstown, Pennsylvania, USA
Distance from station: SSE 71mi, 114km
Updated: Fri, 24-Nov-2017 3:54am EST
Clear
Clear
 Wind from calm
Wind: Calm
Temperature: 23°F , -5°C
Dew Point: 19°F , -7°C
Humidity: 86%
Barometer: 30.07 inHg , 1018.3 hPa
Clouds: Clear
Visibility: 8 miles , 13 km
2017/11/24 08:54 KPTW 240854Z AUTO 00000KT 8SM CLR M05/M07 A3007 RMK AO2 SLP182 T10501067 52003
 
KDYL - Doylestown, Pennsylvania, USA
Distance from station: SE 74mi, 119km
Updated: Fri, 24-Nov-2017 3:54am EST
Clear
Clear
 Wind from calm
Wind: Calm
Temperature: 30°F , -1°C
Dew Point: 21°F , -6°C
Humidity: 69%
Barometer: 30.03 inHg , 1016.9 hPa
Clouds: Clear
Visibility: 10 miles , 16 km
2017/11/24 08:54 KDYL 240854Z AUTO 00000KT 10SM CLR M01/M06 A3003 RMK AO2 SLP177 T10061061 50001
KSMQ - Somerville, New Jersey, USA
Distance from station: ESE 77mi, 124km
Updated: Fri, 24-Nov-2017 3:53am EST
Clear
Clear
 Wind from calm
Wind: Calm
Temperature: 21°F , -6°C
Dew Point: 19°F , -7°C
Humidity: 93%
Barometer: 30.03 inHg , 1016.9 hPa
Clouds: Clear
Visibility: 10 miles , 16 km
2017/11/24 08:53 KSMQ 240853Z AUTO 00000KT 10SM CLR M06/M07 A3003 RMK AO2 SLP172 I1000 I3001 T10561067 50000
 
KLNS - Lancaster, Pennsylvania, USA
Distance from station: SSW 79mi, 127km
Updated: Fri, 24-Nov-2017 3:53am EST
Clear
Clear
 Wind from calm
Wind: Calm
Temperature: 27°F , -3°C
Dew Point: 25°F , -4°C
Humidity: 93%
Barometer: 30.05 inHg , 1017.6 hPa
Clouds: Clear
Visibility: 9 miles , 14 km
2017/11/24 08:53 KLNS 240853Z AUTO 00000KT 9SM CLR M03/M04 A3005 RMK AO2 SLP180 T10281044 50002
KELM - Elmira, New York, USA
Distance from station: NW 82mi, 132km
Updated: Fri, 24-Nov-2017 3:53am EST
Partly cloudy
Partly cloudy
 Wind from calm
Wind: Calm
Temperature: 30°F , -1°C
Dew Point: 25°F , -4°C
Humidity: 80%
Barometer: 29.96 inHg , 1014.6 hPa
Clouds: Partly cloudy
Visibility: 10 miles , 16 km
Cloud details: Partly cloudy 5000 ft
2017/11/24 08:53 KELM 240853Z AUTO 00000KT 10SM SCT050 M01/M04 A2996 RMK AO2 SLP154 T10111039 58006
 
KLOM - Philly Wings F, Pennsylvania, USA
Distance from station: SSE 82mi, 132km
Updated: Fri, 24-Nov-2017 3:35am EST
Clear
Clear
 Wind from calm
Wind: Calm
Temperature: 23°F , -5°C
Dew Point: 23°F , -5°C
Humidity: 100%
Barometer: 30.07 inHg , 1018.3 hPa
Clouds: Clear
Visibility: 10 miles , 16 km
2017/11/24 08:35 KLOM 240835Z AUTO 00000KT 10SM CLR M05/M05 A3007 RMK AO1
KMMU - Morristown Muni, New Jersey, USA
Distance from station: ESE 83mi, 134km
Updated: Fri, 24-Nov-2017 3:35am EST
Clear
Clear
 Wind from calm
Wind: Calm
Temperature: 23°F , -5°C
Dew Point: 23°F , -5°C
Humidity: 100%
Barometer: 30.04 inHg , 1017.3 hPa
Clouds: Clear
Visibility: 10 miles , 16 km
2017/11/24 08:35 KMMU 240835Z AUTO 00000KT 10SM CLR M05/M05 A3004 RMK AO2

Metar display script from Saratoga-Weather.org


Cairn Terrier Rescue
teddybearweather.com 2009-2013